Richard B Russell Airport Rome US
ICAO: KRMG
IATA: RMG
Category: Medium
Scheduled Services: No

Elevation: 644 ft
TransAlt. 18000 ft.

Airport Communications:
ASOS:119.925
ATLANTA CNTR:133.8
CTAF/UNICOM:123

KRMG Zoom In..

If you have problems with the map follow the link
https://www.worldairports.se/pages/airport.php?
ICAO=KRMG

Runways:

(A) RW 01 length 6006 ft width 150 ft
ILS 111.15 / hdg 7

(B) RW 07 length 4495 ft width 100 ft
---- / hdg 72

(C) RW 19 length 6006 ft width 150 ft
---- / hdg 187

(D) RW 25 length 4495 ft width 100 ft
---- / hdg 252

Location; KRMG
Day. 28 / Time. 14.53 Zulu
* Altimeter: 30.08
* Temperature: 04° c. 39.2°f.
* Wind from: 000° Speed 00 kn.
Dewpoint: 03° c.
Visibility: 10 Statute Miles.
Clouds: Clear (automated report).

KRMG 281453Z AUTO 00000KT 10SM CLR 04/03 A3008 RMK AO2 SLP186 I3000 T00390028 51014


Wind - Calm.

 
 
jpsmedia worldairports.se 2020   terms of use